createdAt,value
2023-08-10T00:00:11.234Z,13.7
2023-08-10T00:01:25.503Z,13.7
2023-08-10T00:02:39.800Z,13.6
2023-08-10T00:03:54.209Z,13.6
2023-08-10T00:05:08.525Z,13.6
2023-08-10T00:06:22.809Z,13.6
2023-08-10T00:07:37.095Z,13.7
2023-08-10T00:08:51.487Z,13.6
2023-08-10T00:10:05.820Z,13.6
2023-08-10T00:11:20.092Z,13.6
2023-08-10T00:12:34.381Z,13.6
2023-08-10T00:13:48.783Z,13.5
2023-08-10T00:15:03.102Z,13.5
2023-08-10T00:16:17.398Z,13.5
2023-08-10T00:17:31.679Z,13.5
2023-08-10T00:18:46.072Z,13.5
2023-08-10T00:20:00.399Z,13.5
2023-08-10T00:21:14.692Z,13.5
2023-08-10T00:22:28.970Z,13.5
2023-08-10T00:23:43.372Z,13.4
2023-08-10T00:24:57.689Z,13.4
2023-08-10T00:26:11.972Z,13.3
2023-08-10T00:27:26.251Z,13.3
2023-08-10T00:28:40.672Z,13.2
2023-08-10T00:29:55.000Z,13.2
2023-08-10T00:31:09.000Z,13.3
2023-08-10T00:32:23.560Z,13.4
2023-08-10T00:33:37.961Z,13.4
2023-08-10T00:34:52.282Z,13.5
2023-08-10T00:36:06.624Z,13.5
2023-08-10T00:37:19.973Z,13.4
2023-08-10T00:38:34.290Z,13.4
2023-08-10T00:39:48.576Z,13.5
2023-08-10T00:41:02.858Z,13.4
2023-08-10T00:42:17.260Z,13.4
2023-08-10T00:43:31.596Z,13.4
2023-08-10T00:44:45.870Z,13.4
2023-08-10T00:46:00.155Z,13.5
2023-08-10T00:47:14.550Z,13.5
2023-08-10T00:48:28.882Z,13.5
2023-08-10T00:49:43.172Z,13.5
2023-08-10T00:50:57.438Z,13.5
2023-08-10T00:52:11.848Z,13.5
2023-08-10T00:53:26.185Z,13.5
2023-08-10T00:54:40.464Z,13.5
2023-08-10T00:55:54.734Z,13.5
2023-08-10T00:57:09.153Z,13.4
2023-08-10T00:58:23.478Z,13.4
2023-08-10T00:59:37.756Z,13.4
2023-08-10T01:00:52.152Z,13.4
2023-08-10T01:02:06.571Z,13.4
2023-08-10T01:03:20.879Z,13.4
2023-08-10T01:04:35.165Z,13.4
2023-08-10T01:05:49.448Z,13.4
2023-08-10T01:07:03.848Z,13.4
2023-08-10T01:08:18.186Z,13.3
2023-08-10T01:09:32.467Z,13.3
2023-08-10T01:10:46.748Z,13.4
2023-08-10T01:12:01.146Z,13.3
2023-08-10T01:13:15.482Z,13.3
2023-08-10T01:14:29.758Z,13.3
2023-08-10T01:15:44.043Z,13.3
2023-08-10T01:16:58.451Z,13.3
2023-08-10T01:18:12.762Z,13.3
2023-08-10T01:19:27.057Z,13.3
2023-08-10T01:20:41.318Z,13.3
2023-08-10T01:21:55.737Z,13.2
2023-08-10T01:23:10.068Z,13.2
2023-08-10T01:24:24.332Z,13.2
2023-08-10T01:25:38.620Z,13.2
2023-08-10T01:26:53.033Z,13.1
2023-08-10T01:28:07.351Z,13.1
2023-08-10T01:29:21.631Z,13.2
2023-08-10T01:30:35.923Z,13.3
2023-08-10T01:31:50.317Z,13.4
2023-08-10T01:33:04.652Z,13.4
2023-08-10T01:34:18.923Z,13.4
2023-08-10T01:35:33.206Z,13.4
2023-08-10T01:36:47.614Z,13.3
2023-08-10T01:38:01.945Z,13.3
2023-08-10T01:39:16.215Z,13.4
2023-08-10T01:40:30.510Z,13.4
2023-08-10T01:41:44.919Z,13.4
2023-08-10T01:42:59.234Z,13.4
2023-08-10T01:44:13.515Z,13.4
2023-08-10T01:45:27.787Z,13.5
2023-08-10T01:46:42.255Z,13.4
2023-08-10T01:47:56.591Z,13.4
2023-08-10T01:49:09.956Z,13.4
2023-08-10T01:50:24.240Z,13.4
2023-08-10T01:51:38.644Z,13.5
2023-08-10T01:52:52.977Z,13.5
2023-08-10T01:54:07.247Z,13.5
2023-08-10T01:55:21.537Z,13.5
2023-08-10T01:56:35.929Z,13.5
2023-08-10T01:57:50.262Z,13.6
2023-08-10T01:59:04.535Z,13.6
2023-08-10T02:00:18.831Z,13.6
2023-08-10T02:01:33.226Z,13.6
2023-08-10T02:02:47.551Z,13.6
2023-08-10T02:04:01.824Z,13.6
2023-08-10T02:05:16.118Z,13.6
2023-08-10T02:06:30.520Z,13.6
2023-08-10T02:07:44.837Z,13.6
2023-08-10T02:08:59.127Z,13.6
2023-08-10T02:10:13.398Z,13.6
2023-08-10T02:11:27.817Z,13.7
2023-08-10T02:12:42.136Z,13.7
2023-08-10T02:13:56.413Z,13.6
2023-08-10T02:15:10.695Z,13.6
2023-08-10T02:16:25.105Z,13.6
2023-08-10T02:17:39.438Z,13.6
2023-08-10T02:18:53.721Z,13.6
2023-08-10T02:20:08.061Z,13.6
2023-08-10T02:21:22.457Z,13.6
2023-08-10T02:22:36.799Z,13.6
2023-08-10T02:23:51.130Z,13.6
2023-08-10T02:25:05.483Z,13.7
2023-08-10T02:26:18.824Z,13.7
2023-08-10T02:27:33.146Z,13.8
2023-08-10T02:28:47.438Z,13.8
2023-08-10T02:30:01.705Z,13.9
2023-08-10T02:31:16.113Z,13.9
2023-08-10T02:32:30.444Z,13.8
2023-08-10T02:33:44.720Z,13.9
2023-08-10T02:34:58.998Z,13.9
2023-08-10T02:36:13.416Z,13.9
2023-08-10T02:37:27.740Z,13.9
2023-08-10T02:38:42.016Z,13.9
2023-08-10T02:39:56.288Z,13.9
2023-08-10T02:41:10.705Z,13.9
2023-08-10T02:42:25.027Z,13.9
2023-08-10T02:43:39.307Z,13.9
2023-08-10T02:44:53.583Z,13.9
2023-08-10T02:46:08.005Z,13.9
2023-08-10T02:47:22.323Z,13.9
2023-08-10T02:48:36.605Z,13.9
2023-08-10T02:49:50.887Z,13.9
2023-08-10T02:51:05.300Z,13.9
2023-08-10T02:52:19.616Z,13.9
2023-08-10T02:53:33.901Z,13.9
2023-08-10T02:54:48.169Z,13.9
2023-08-10T02:56:02.579Z,13.9
2023-08-10T02:57:16.973Z,13.9
2023-08-10T02:58:30.348Z,13.9
2023-08-10T02:59:43.699Z,13.9
2023-08-10T03:00:58.036Z,13.9
2023-08-10T03:02:12.317Z,13.9
2023-08-10T03:03:26.594Z,13.9
2023-08-10T03:04:40.988Z,13.9
2023-08-10T03:05:55.313Z,14
2023-08-10T03:07:09.597Z,14
2023-08-10T03:08:23.891Z,14.1
2023-08-10T03:09:38.292Z,14.1
2023-08-10T03:10:52.608Z,14.1
2023-08-10T03:12:06.887Z,14.1
2023-08-10T03:13:21.168Z,14.1
2023-08-10T03:14:35.587Z,14.1
2023-08-10T03:15:49.900Z,14
2023-08-10T03:17:04.181Z,14
2023-08-10T03:18:18.521Z,14.1
2023-08-10T03:19:32.799Z,14
2023-08-10T03:20:47.192Z,14
2023-08-10T03:22:01.518Z,14
2023-08-10T03:23:15.751Z,14
2023-08-10T03:24:29.983Z,14
2023-08-10T03:25:44.214Z,14.1
2023-08-10T03:26:58.499Z,14.1
2023-08-10T03:28:12.803Z,14.1
2023-08-10T03:29:27.080Z,14.1
2023-08-10T03:30:41.361Z,14.2
2023-08-10T03:31:55.658Z,14.2
2023-08-10T03:33:09.937Z,14.2
2023-08-10T03:34:24.232Z,14.2
2023-08-10T03:35:37.527Z,14.2
2023-08-10T03:36:51.833Z,14.2
2023-08-10T03:38:06.056Z,14.3
2023-08-10T03:39:20.286Z,14.3
2023-08-10T03:41:48.734Z,14.3
2023-08-10T03:43:03.040Z,14.3
2023-08-10T03:44:17.294Z,14.3
2023-08-10T03:45:31.502Z,14.3
2023-08-10T03:46:45.745Z,14.3
2023-08-10T03:47:59.957Z,14.3
2023-08-10T03:49:14.265Z,14.3
2023-08-10T03:50:28.496Z,14.3
2023-08-10T03:51:42.741Z,14.2
2023-08-10T03:52:57.087Z,14.2
2023-08-10T03:54:11.310Z,14.2
2023-08-10T03:55:25.614Z,14.1
2023-08-10T03:56:39.847Z,14.1
2023-08-10T03:57:54.070Z,14
2023-08-10T03:59:08.298Z,13.9
2023-08-10T04:00:22.518Z,13.9
2023-08-10T04:01:36.823Z,13.8
2023-08-10T04:02:51.073Z,13.7
2023-08-10T04:04:05.297Z,13.7
2023-08-10T04:05:19.511Z,13.6
2023-08-10T04:06:33.894Z,13.7
2023-08-10T04:07:48.186Z,13.7
2023-08-10T04:09:02.432Z,13.6
2023-08-10T04:10:16.649Z,13.6
2023-08-10T04:11:30.876Z,13.6
2023-08-10T04:12:45.117Z,13.6
2023-08-10T04:13:59.415Z,13.6
2023-08-10T04:15:13.642Z,13.6
2023-08-10T04:16:27.883Z,13.6
2023-08-10T04:17:42.109Z,13.7
2023-08-10T04:18:56.461Z,13.7
2023-08-10T04:20:10.745Z,13.7
2023-08-10T04:21:24.985Z,13.7
2023-08-10T04:22:39.223Z,13.7
2023-08-10T04:23:53.443Z,13.6
2023-08-10T04:25:07.678Z,13.6
2023-08-10T04:26:21.976Z,13.6
2023-08-10T04:27:36.211Z,13.5
2023-08-10T04:28:50.441Z,13.5
2023-08-10T04:30:04.655Z,13.5
2023-08-10T04:31:18.900Z,13.5
2023-08-10T04:33:47.441Z,13.6
2023-08-10T04:35:01.667Z,13.6
2023-08-10T04:36:15.883Z,13.7
2023-08-10T04:37:30.117Z,13.7
2023-08-10T04:38:44.415Z,13.8
2023-08-10T04:39:58.657Z,13.8
2023-08-10T04:41:12.883Z,13.8
2023-08-10T04:42:27.113Z,13.9
2023-08-10T04:43:41.332Z,13.9
2023-08-10T04:44:55.635Z,13.9
2023-08-10T04:46:09.868Z,14
2023-08-10T04:47:24.093Z,14.1
2023-08-10T04:49:52.548Z,14.1
2023-08-10T04:51:06.857Z,14.2
2023-08-10T04:52:21.095Z,14.2
2023-08-10T04:53:35.318Z,14.2
2023-08-10T04:54:49.545Z,14.2
2023-08-10T04:56:03.773Z,14.2
2023-08-10T04:57:18.066Z,14.3
2023-08-10T04:58:32.307Z,14.3
2023-08-10T04:59:46.528Z,14.3
2023-08-10T05:01:00.756Z,14.3
2023-08-10T05:02:14.994Z,14.3
2023-08-10T05:03:29.292Z,14.3
2023-08-10T05:04:43.595Z,14.3
2023-08-10T05:05:57.995Z,14.3
2023-08-10T05:07:11.289Z,14.3
2023-08-10T05:08:25.594Z,14.3
2023-08-10T05:09:39.834Z,14.3
2023-08-10T05:10:54.065Z,14.3
2023-08-10T05:12:08.288Z,14.3
2023-08-10T05:13:22.502Z,14.4
2023-08-10T05:14:36.808Z,14.5
2023-08-10T05:15:51.056Z,14.6
2023-08-10T05:17:05.277Z,14.7
2023-08-10T05:18:19.505Z,14.8
2023-08-10T05:19:33.732Z,14.9
2023-08-10T05:20:48.033Z,14.9
2023-08-10T05:22:02.266Z,14.9
2023-08-10T05:23:16.499Z,14.9
2023-08-10T05:24:30.724Z,15
2023-08-10T05:25:44.953Z,15
2023-08-10T05:26:59.252Z,15.1
2023-08-10T05:28:13.491Z,15.1
2023-08-10T05:29:27.722Z,15.3
2023-08-10T05:30:41.946Z,15.4
2023-08-10T05:31:56.162Z,15.5
2023-08-10T05:33:10.469Z,15.6
2023-08-10T05:34:24.722Z,15.6
2023-08-10T05:35:38.938Z,15.6
2023-08-10T05:36:53.173Z,15.6
2023-08-10T05:38:07.453Z,15.6
2023-08-10T05:39:21.751Z,15.7
2023-08-10T05:40:36.040Z,15.8
2023-08-10T05:41:49.360Z,15.9
2023-08-10T05:43:03.659Z,15.9
2023-08-10T05:44:17.939Z,15.9
2023-08-10T05:45:32.228Z,15.9
2023-08-10T05:46:45.524Z,16
2023-08-10T05:47:59.762Z,16
2023-08-10T05:49:14.057Z,16
2023-08-10T05:50:28.297Z,16.1
2023-08-10T05:51:42.513Z,16.1
2023-08-10T05:52:56.744Z,16.1
2023-08-10T05:54:10.981Z,16.1
2023-08-10T05:55:25.277Z,16.1
2023-08-10T05:56:39.514Z,16.2
2023-08-10T05:57:53.734Z,16.2
2023-08-10T05:59:07.969Z,16.2
2023-08-10T06:00:22.186Z,16.3
2023-08-10T06:01:36.486Z,16.3
2023-08-10T06:02:50.731Z,16.3
2023-08-10T06:04:04.958Z,16.3
2023-08-10T06:05:19.188Z,16.4
2023-08-10T06:06:33.415Z,16.5
2023-08-10T06:07:47.704Z,16.5
2023-08-10T06:09:01.955Z,16.5
2023-08-10T06:10:16.186Z,16.4
2023-08-10T06:11:30.402Z,16.4
2023-08-10T06:12:44.641Z,16.4
2023-08-10T06:13:58.943Z,16.4
2023-08-10T06:15:13.182Z,16.5
2023-08-10T06:16:27.397Z,16.6
2023-08-10T06:17:41.693Z,16.6
2023-08-10T06:18:55.029Z,16.7
2023-08-10T06:20:09.306Z,16.6
2023-08-10T06:21:22.613Z,16.7
2023-08-10T06:22:36.828Z,16.7
2023-08-10T06:23:51.141Z,16.7
2023-08-10T06:25:05.368Z,16.7
2023-08-10T06:26:19.595Z,16.7
2023-08-10T06:27:33.837Z,16.7
2023-08-10T06:30:02.354Z,16.9
2023-08-10T06:31:16.589Z,17
2023-08-10T06:32:30.816Z,17.1
2023-08-10T06:33:45.046Z,17.2
2023-08-10T06:34:59.281Z,17.3
2023-08-10T06:36:13.581Z,17.4
2023-08-10T06:37:27.825Z,17.4
2023-08-10T06:38:42.038Z,17.4
2023-08-10T06:39:56.267Z,17.5
2023-08-10T06:41:10.505Z,17.5
2023-08-10T06:42:24.787Z,17.5
2023-08-10T06:43:39.046Z,17.5
2023-08-10T06:44:53.267Z,17.5
2023-08-10T06:46:07.480Z,17.5
2023-08-10T06:47:21.718Z,17.4
2023-08-10T06:48:36.011Z,17.5
2023-08-10T06:49:50.265Z,17.7
2023-08-10T06:51:04.487Z,17.7
2023-08-10T06:52:18.777Z,17.7
2023-08-10T06:53:32.109Z,17.6
2023-08-10T06:54:46.384Z,17.6
2023-08-10T06:55:59.684Z,17.6
2023-08-10T06:57:13.905Z,17.7
2023-08-10T06:58:28.216Z,17.8
2023-08-10T06:59:42.440Z,17.9
2023-08-10T07:00:56.675Z,17.9
2023-08-10T07:02:10.898Z,17.9
2023-08-10T07:03:25.127Z,18
2023-08-10T07:04:39.417Z,18.1
2023-08-10T07:05:53.668Z,18.3
2023-08-10T07:07:07.901Z,18.5
2023-08-10T07:08:22.120Z,18.6
2023-08-10T07:12:04.895Z,18.7
2023-08-10T07:13:19.121Z,18.6
2023-08-10T07:14:33.345Z,18.3
2023-08-10T07:15:47.560Z,18.2
2023-08-10T07:17:01.862Z,18.2
2023-08-10T07:18:16.114Z,18.3
2023-08-10T07:19:30.324Z,18.2
2023-08-10T07:20:44.555Z,18.1
2023-08-10T07:21:58.786Z,18
2023-08-10T07:23:13.088Z,18.1
2023-08-10T07:24:27.319Z,18.1
2023-08-10T07:25:41.543Z,18.2
2023-08-10T07:26:55.837Z,18.2
2023-08-10T07:28:09.136Z,18.3
2023-08-10T07:29:23.384Z,18.4
2023-08-10T07:30:37.622Z,18.2
2023-08-10T07:31:51.955Z,18.1
2023-08-10T07:33:06.177Z,18.1
2023-08-10T07:34:20.477Z,18
2023-08-10T07:35:34.710Z,18.1
2023-08-10T07:36:48.949Z,18.2
2023-08-10T07:38:03.162Z,18.1
2023-08-10T07:39:17.396Z,18.1
2023-08-10T07:40:31.702Z,18
2023-08-10T07:41:45.928Z,18.2
2023-08-10T07:43:00.163Z,18.1
2023-08-10T07:44:14.379Z,18.1
2023-08-10T07:45:28.606Z,18.2
2023-08-10T07:46:42.911Z,18.4
2023-08-10T07:47:57.149Z,18.5
2023-08-10T07:49:11.385Z,18.7
2023-08-10T07:50:25.608Z,18.9
2023-08-10T07:51:39.960Z,19
2023-08-10T07:52:54.253Z,19.3
2023-08-10T07:54:08.503Z,19.5
2023-08-10T07:56:36.951Z,20
2023-08-10T07:57:51.180Z,19.9
2023-08-10T07:59:05.476Z,19.7
2023-08-10T08:00:19.710Z,19.6
2023-08-10T08:01:33.938Z,19.5
2023-08-10T08:02:48.000Z,19.4
2023-08-10T08:04:02.394Z,19.2
2023-08-10T08:05:16.707Z,19.3
2023-08-10T08:06:30.942Z,19.5
2023-08-10T08:07:45.166Z,19.7
2023-08-10T08:08:59.392Z,19.9
2023-08-10T08:10:13.625Z,19.9
2023-08-10T08:11:27.925Z,20.3
2023-08-10T08:12:42.161Z,20.6
2023-08-10T08:13:56.377Z,20.9
2023-08-10T08:15:10.609Z,20.8
2023-08-10T08:16:24.834Z,20.7
2023-08-10T08:17:39.136Z,20.5
2023-08-10T08:18:53.386Z,20.4
2023-08-10T08:20:07.606Z,20.4
2023-08-10T08:21:21.836Z,20.4
2023-08-10T08:22:36.052Z,20.6
2023-08-10T08:23:50.357Z,20.6
2023-08-10T08:25:04.599Z,20.4
2023-08-10T08:26:18.821Z,20.2
2023-08-10T08:27:33.060Z,19.8
2023-08-10T08:28:47.280Z,19.6
2023-08-10T08:30:01.589Z,19.5
2023-08-10T08:31:15.830Z,19.6
2023-08-10T08:32:30.198Z,20
2023-08-10T08:33:44.413Z,20.6
2023-08-10T08:34:58.638Z,21.4
2023-08-10T08:36:12.950Z,22.1
2023-08-10T08:37:27.184Z,22.6
2023-08-10T08:38:41.412Z,23.1
2023-08-10T08:39:55.764Z,23.2
2023-08-10T08:41:09.979Z,23.1
2023-08-10T08:42:24.289Z,22.8
2023-08-10T08:43:38.535Z,23.1
2023-08-10T08:44:52.753Z,23.3
2023-08-10T08:46:06.979Z,23
2023-08-10T08:47:21.201Z,22.7
2023-08-10T08:48:35.502Z,22.7
2023-08-10T08:49:49.753Z,22.4
2023-08-10T08:51:03.975Z,22.4
2023-08-10T08:52:18.195Z,22.2
2023-08-10T08:53:32.433Z,21.8
2023-08-10T08:54:46.728Z,22
2023-08-10T08:56:00.968Z,22.2
2023-08-10T08:57:15.187Z,22.5
2023-08-10T08:58:29.427Z,22.4
2023-08-10T08:59:43.638Z,22
2023-08-10T09:00:57.956Z,21.9
2023-08-10T09:02:12.196Z,22
2023-08-10T09:03:26.417Z,22.5
2023-08-10T09:04:40.652Z,22.9
2023-08-10T09:05:54.867Z,22.7
2023-08-10T09:07:09.159Z,23
2023-08-10T09:08:23.402Z,23.9
2023-08-10T09:09:37.627Z,24.9
2023-08-10T09:10:51.856Z,25.3
2023-08-10T09:12:06.087Z,24.4
2023-08-10T09:13:20.397Z,23.5
2023-08-10T09:14:34.626Z,22.8
2023-08-10T09:15:48.857Z,22.1
2023-08-10T09:17:03.081Z,22.5
2023-08-10T09:18:17.316Z,23.7
2023-08-10T09:19:31.614Z,25
2023-08-10T09:20:45.855Z,25.6
2023-08-10T09:22:00.213Z,24.4
2023-08-10T09:23:14.452Z,22.9
2023-08-10T09:24:28.683Z,21.8
2023-08-10T09:25:42.966Z,21.5
2023-08-10T09:26:57.230Z,22.9
2023-08-10T09:28:11.464Z,24.2
2023-08-10T09:29:25.673Z,25.1
2023-08-10T09:30:39.913Z,25.7
2023-08-10T09:31:54.216Z,26.2
2023-08-10T09:33:08.442Z,25.4
2023-08-10T09:34:22.671Z,25.3
2023-08-10T09:35:36.896Z,24.7
2023-08-10T09:36:51.131Z,25.2
2023-08-10T09:38:05.421Z,25.9
2023-08-10T09:39:19.670Z,26
2023-08-10T09:40:33.895Z,26.2
2023-08-10T09:41:48.126Z,25.7
2023-08-10T09:43:02.351Z,25.3
2023-08-10T09:44:16.657Z,25.7
2023-08-10T09:45:30.905Z,26.3
2023-08-10T09:46:45.120Z,26.4
2023-08-10T09:47:59.356Z,27.1
2023-08-10T09:49:13.579Z,27.2
2023-08-10T09:50:27.871Z,27.7
2023-08-10T09:51:42.114Z,28.5
2023-08-10T09:52:56.410Z,28.4
2023-08-10T09:54:10.686Z,28.6
2023-08-10T09:55:23.988Z,28.3
2023-08-10T09:56:38.228Z,28.8
2023-08-10T09:57:52.465Z,28.4
2023-08-10T09:59:06.676Z,27.7
2023-08-10T10:00:20.917Z,27.4
2023-08-10T10:01:35.215Z,27.3
2023-08-10T10:02:49.463Z,26.9
2023-08-10T10:04:03.677Z,26.6
2023-08-10T10:05:17.908Z,26.9
2023-08-10T10:06:32.128Z,26.5
2023-08-10T10:07:46.447Z,26.4
2023-08-10T10:09:00.685Z,26.1
2023-08-10T10:10:14.904Z,26.2
2023-08-10T10:11:29.139Z,26.1
2023-08-10T10:12:43.359Z,26.2
2023-08-10T10:13:57.670Z,26.1
2023-08-10T10:15:11.908Z,26.2
2023-08-10T10:16:26.140Z,25.5
2023-08-10T10:17:40.358Z,25.8
2023-08-10T10:18:54.721Z,26.2
2023-08-10T10:20:09.012Z,26.5
2023-08-10T10:21:23.259Z,26.5
2023-08-10T10:22:37.492Z,26.2
2023-08-10T10:23:51.712Z,26.6
2023-08-10T10:25:05.943Z,26.1
2023-08-10T10:26:20.247Z,25.3
2023-08-10T10:27:34.485Z,25.9
2023-08-10T10:28:48.715Z,26.3
2023-08-10T10:30:03.086Z,26.3
2023-08-10T10:31:17.322Z,26.6
2023-08-10T10:32:31.627Z,25.3
2023-08-10T10:33:45.868Z,24.5
2023-08-10T10:35:00.089Z,23.8
2023-08-10T10:36:14.310Z,23.3
2023-08-10T10:37:28.539Z,23.7
2023-08-10T10:38:42.843Z,24.6
2023-08-10T10:39:57.076Z,25.3
2023-08-10T10:41:11.308Z,25.2
2023-08-10T10:42:25.537Z,25.2
2023-08-10T10:43:39.774Z,26
2023-08-10T10:44:54.069Z,26.5
2023-08-10T10:48:36.759Z,26.2
2023-08-10T10:49:50.987Z,26.8
2023-08-10T10:51:05.303Z,27.7
2023-08-10T10:52:19.532Z,28
2023-08-10T10:53:33.755Z,28.2
2023-08-10T10:54:47.986Z,27.8
2023-08-10T10:56:02.226Z,26.6
2023-08-10T10:57:16.522Z,25.4
2023-08-10T10:58:30.763Z,24.3
2023-08-10T10:59:44.993Z,24.4
2023-08-10T11:00:59.271Z,25.5
2023-08-10T11:02:12.619Z,26.4
2023-08-10T11:03:26.893Z,26.8
2023-08-10T11:04:40.183Z,27.2
2023-08-10T11:05:54.411Z,27.9
2023-08-10T11:07:08.712Z,28.4
2023-08-10T11:08:22.971Z,28.4
2023-08-10T11:09:37.193Z,28.7
2023-08-10T11:10:51.533Z,28.3
2023-08-10T11:12:05.761Z,28.6
2023-08-10T11:13:20.074Z,28.8
2023-08-10T11:14:34.317Z,28
2023-08-10T11:15:48.530Z,27.6
2023-08-10T11:17:02.772Z,27.4
2023-08-10T11:18:16.996Z,27
2023-08-10T11:19:31.307Z,26.9
2023-08-10T11:20:45.543Z,26.2
2023-08-10T11:21:59.762Z,26.9
2023-08-10T11:23:14.003Z,27.3
2023-08-10T11:24:28.233Z,27.5
2023-08-10T11:25:42.517Z,27.5
2023-08-10T11:26:56.777Z,27.3
2023-08-10T11:28:10.995Z,27.5
2023-08-10T11:29:25.222Z,27.8
2023-08-10T11:30:39.454Z,28.2
2023-08-10T11:31:53.763Z,27.9
2023-08-10T11:34:22.220Z,27
2023-08-10T11:35:36.453Z,26.4
2023-08-10T11:36:50.688Z,26.2
2023-08-10T11:38:04.982Z,25.4
2023-08-10T11:39:19.229Z,25.5
2023-08-10T11:40:33.444Z,26.1
2023-08-10T11:41:47.678Z,26.3
2023-08-10T11:43:01.905Z,26.6
2023-08-10T11:44:16.212Z,26.6
2023-08-10T11:45:30.451Z,26.8
2023-08-10T11:46:44.680Z,26.8
2023-08-10T11:47:58.902Z,27.1
2023-08-10T11:49:13.140Z,27.2
2023-08-10T11:50:27.428Z,27.1
2023-08-10T11:51:41.686Z,25.9
2023-08-10T11:52:55.907Z,26.2
2023-08-10T11:54:10.138Z,26.8
2023-08-10T11:55:24.360Z,27.5
2023-08-10T11:56:38.719Z,27.4
2023-08-10T11:57:53.003Z,27.9
2023-08-10T11:59:07.294Z,28.9
2023-08-10T12:00:20.626Z,28.6
2023-08-10T12:01:34.917Z,27.9
2023-08-10T12:02:49.209Z,27.5
2023-08-10T12:05:16.881Z,27.3
2023-08-10T12:06:31.183Z,27.2
2023-08-10T12:07:45.418Z,27.3
2023-08-10T12:08:59.660Z,27.9
2023-08-10T12:10:13.871Z,28.2
2023-08-10T12:11:28.108Z,28.2
2023-08-10T12:12:42.408Z,28.3
2023-08-10T12:13:56.655Z,27.6
2023-08-10T12:15:10.867Z,27.8
2023-08-10T12:16:25.094Z,27.8
2023-08-10T12:17:39.329Z,27.6
2023-08-10T12:18:53.000Z,27.3
2023-08-10T12:20:07.866Z,27.7
2023-08-10T12:21:22.094Z,27.9
2023-08-10T12:22:36.462Z,27.2
2023-08-10T12:23:50.670Z,26.7
2023-08-10T12:25:04.972Z,26.4
2023-08-10T12:26:19.216Z,26
2023-08-10T12:28:47.675Z,25.8
2023-08-10T12:30:01.896Z,26.5
2023-08-10T12:31:16.207Z,27.7
2023-08-10T12:32:30.449Z,28.2
2023-08-10T12:33:44.682Z,28.7
2023-08-10T12:34:58.897Z,29.2
2023-08-10T12:36:13.139Z,29.7
2023-08-10T12:37:27.435Z,30.3
2023-08-10T12:38:41.674Z,30.4
2023-08-10T12:39:55.903Z,30.9
2023-08-10T12:41:10.122Z,30.6
2023-08-10T12:42:24.354Z,30
2023-08-10T12:43:38.655Z,29.4
2023-08-10T12:44:52.898Z,29.1
2023-08-10T12:46:07.122Z,28.1
2023-08-10T12:47:21.358Z,27.5
2023-08-10T12:48:35.587Z,27.3
2023-08-10T12:49:49.888Z,27
2023-08-10T12:51:04.124Z,26.8
2023-08-10T12:52:18.351Z,26.9
2023-08-10T12:53:32.580Z,26.8
2023-08-10T12:54:46.803Z,26.6
2023-08-10T12:56:01.107Z,26.6
2023-08-10T12:57:15.349Z,26.8
2023-08-10T12:58:29.568Z,26.5
2023-08-10T12:59:43.805Z,26.5
2023-08-10T13:00:58.035Z,26.9
2023-08-10T13:02:12.323Z,27.8
2023-08-10T13:03:26.572Z,29.2
2023-08-10T13:04:40.800Z,30.2
2023-08-10T13:05:55.034Z,30.6
2023-08-10T13:07:09.262Z,30.7
2023-08-10T13:08:23.608Z,30.7
2023-08-10T13:09:37.909Z,31.1
2023-08-10T13:10:51.229Z,30.9
2023-08-10T13:12:05.508Z,30.8
2023-08-10T13:13:19.823Z,31.6
2023-08-10T13:14:34.112Z,32
2023-08-10T13:15:48.383Z,32.6
2023-08-10T13:17:02.670Z,32.7
2023-08-10T13:18:16.955Z,31.8
2023-08-10T13:19:31.258Z,30.7
2023-08-10T13:20:45.551Z,30.2
2023-08-10T13:21:59.825Z,29.3
2023-08-10T13:23:14.109Z,28.7
2023-08-10T13:24:28.401Z,28.7
2023-08-10T13:25:42.706Z,28.3
2023-08-10T13:26:56.990Z,27.5
2023-08-10T13:28:10.310Z,27.6
2023-08-10T13:29:24.602Z,27.6
2023-08-10T13:30:38.898Z,27.7
2023-08-10T13:31:53.192Z,27.9
2023-08-10T13:33:06.481Z,27.2
2023-08-10T13:34:20.713Z,26.9
2023-08-10T13:35:35.007Z,26.7
2023-08-10T13:36:49.252Z,26.8
2023-08-10T13:38:03.483Z,26.9
2023-08-10T13:39:17.705Z,27
2023-08-10T13:40:31.942Z,26.7
2023-08-10T13:41:46.243Z,26.7
2023-08-10T13:43:00.472Z,26.7
2023-08-10T13:44:14.706Z,26.9
2023-08-10T13:45:28.940Z,26.8
2023-08-10T13:46:43.153Z,26.4
2023-08-10T13:47:57.466Z,26.2
2023-08-10T13:49:11.690Z,25.9
2023-08-10T13:50:25.927Z,25.9
2023-08-10T13:51:40.150Z,25.6
2023-08-10T13:52:54.377Z,25.5
2023-08-10T13:54:08.686Z,25.4
2023-08-10T13:55:22.913Z,25.3
2023-08-10T13:56:37.147Z,25.1
2023-08-10T13:57:51.370Z,25.1
2023-08-10T13:59:05.605Z,25
2023-08-10T14:00:19.896Z,25
2023-08-10T14:01:34.145Z,25.2
2023-08-10T14:02:48.374Z,25.4
2023-08-10T14:04:02.657Z,25.4
2023-08-10T14:05:15.993Z,25.6
2023-08-10T14:06:30.281Z,25.7
2023-08-10T14:07:44.563Z,25.8
2023-08-10T14:08:58.850Z,25.9
2023-08-10T14:10:13.130Z,25.9
2023-08-10T14:11:27.421Z,25.7
2023-08-10T14:12:41.707Z,25.8
2023-08-10T14:13:54.993Z,25.9
2023-08-10T14:15:09.237Z,25.7
2023-08-10T14:16:23.520Z,25.7
2023-08-10T14:17:37.777Z,25.3
2023-08-10T14:18:51.999Z,25.2
2023-08-10T14:20:06.220Z,25.2
2023-08-10T14:21:20.452Z,25.2
2023-08-10T14:22:34.753Z,25.3
2023-08-10T14:23:49.002Z,25.5
2023-08-10T14:25:03.225Z,25.7
2023-08-10T14:26:17.442Z,25.6
2023-08-10T14:27:31.681Z,25.3
2023-08-10T14:28:45.972Z,25.4
2023-08-10T14:30:00.205Z,25.4
2023-08-10T14:31:14.440Z,25.4
2023-08-10T14:32:28.658Z,25.6
2023-08-10T14:33:42.898Z,25.7
2023-08-10T14:34:57.199Z,25.7
2023-08-10T14:36:11.442Z,25.4
2023-08-10T14:37:25.659Z,25.5
2023-08-10T14:39:54.113Z,25.9
2023-08-10T14:41:08.426Z,26.2
2023-08-10T14:42:22.668Z,26.3
2023-08-10T14:43:36.881Z,26.3
2023-08-10T14:44:51.166Z,26.4
2023-08-10T14:46:04.504Z,26.5
2023-08-10T14:47:18.794Z,26.5
2023-08-10T14:48:32.084Z,26.4
2023-08-10T14:49:46.318Z,26.5
2023-08-10T14:51:00.610Z,26.6
2023-08-10T14:52:14.866Z,26.6
2023-08-10T14:53:29.085Z,26.3
2023-08-10T14:54:43.308Z,26.2
2023-08-10T14:55:57.541Z,26
2023-08-10T14:57:11.848Z,25.8
2023-08-10T14:58:26.078Z,25.6
2023-08-10T14:59:40.298Z,25.6
2023-08-10T15:00:54.533Z,25.7
2023-08-10T15:02:08.756Z,25.9
2023-08-10T15:03:23.071Z,26
2023-08-10T15:04:37.298Z,26.1
2023-08-10T15:05:51.529Z,26.2
2023-08-10T15:07:05.756Z,26
2023-08-10T15:08:19.974Z,25.7
2023-08-10T15:09:34.280Z,25.5
2023-08-10T15:10:48.529Z,25.5
2023-08-10T15:12:02.752Z,25.7
2023-08-10T15:13:16.987Z,25.8
2023-08-10T15:14:31.199Z,25.8
2023-08-10T15:15:45.499Z,25.6
2023-08-10T15:16:59.736Z,25.5
2023-08-10T15:18:13.970Z,25.4
2023-08-10T15:19:28.255Z,25.4
2023-08-10T15:20:42.669Z,25.2
2023-08-10T15:21:56.969Z,25.3
2023-08-10T15:23:11.237Z,25.3
2023-08-10T15:24:24.538Z,25.3
2023-08-10T15:25:38.772Z,25.2
2023-08-10T15:26:53.060Z,25.3
2023-08-10T15:28:07.314Z,25.3
2023-08-10T15:29:21.536Z,25.2
2023-08-10T15:30:35.769Z,25.2
2023-08-10T15:31:49.993Z,25.3
2023-08-10T15:33:04.287Z,25.3
2023-08-10T15:35:32.761Z,25.3
2023-08-10T15:36:46.978Z,25.4
2023-08-10T15:38:01.207Z,25.6
2023-08-10T15:39:15.515Z,25.6
2023-08-10T15:40:29.750Z,25.5
2023-08-10T15:41:43.984Z,25.4
2023-08-10T15:44:12.424Z,25.6
2023-08-10T15:45:26.733Z,25.6
2023-08-10T15:46:40.974Z,25.5
2023-08-10T15:47:55.192Z,25.3
2023-08-10T15:49:09.427Z,25.2
2023-08-10T15:50:23.648Z,25
2023-08-10T15:51:37.959Z,25
2023-08-10T15:52:52.201Z,24.9
2023-08-10T15:54:06.420Z,24.9
2023-08-10T15:55:20.715Z,24.8
2023-08-10T15:56:34.039Z,24.8
2023-08-10T15:57:48.316Z,24.8
2023-08-10T15:59:01.677Z,24.8
2023-08-10T16:00:16.078Z,24.7
2023-08-10T16:01:30.387Z,24.7
2023-08-10T16:02:44.670Z,24.6
2023-08-10T16:03:57.961Z,24.7
2023-08-10T16:05:12.189Z,24.7
2023-08-10T16:06:26.486Z,24.7
2023-08-10T16:07:40.726Z,24.5
2023-08-10T16:08:54.957Z,24.5
2023-08-10T16:10:09.191Z,24.4
2023-08-10T16:11:23.414Z,24.4
2023-08-10T16:13:51.952Z,24.4
2023-08-10T16:15:06.167Z,24.3
2023-08-10T16:16:20.401Z,24.3
2023-08-10T16:17:34.635Z,24.3
2023-08-10T16:18:48.921Z,24.3
2023-08-10T16:20:03.172Z,24.2
2023-08-10T16:21:17.395Z,24.1
2023-08-10T16:22:31.617Z,24.1
2023-08-10T16:23:45.849Z,24
2023-08-10T16:25:00.138Z,24.1
2023-08-10T16:26:14.384Z,24
2023-08-10T16:27:28.618Z,24.1
2023-08-10T16:28:42.838Z,24
2023-08-10T16:29:57.077Z,23.9
2023-08-10T16:31:11.365Z,23.9
2023-08-10T16:32:25.607Z,23.9
2023-08-10T16:33:39.830Z,24.1
2023-08-10T16:34:54.127Z,24.2
2023-08-10T16:36:07.441Z,24.2
2023-08-10T16:37:21.726Z,24.2
2023-08-10T16:38:35.029Z,24.3
2023-08-10T16:39:49.264Z,24.3
2023-08-10T16:41:03.560Z,24.2
2023-08-10T16:42:17.797Z,24.2
2023-08-10T16:43:32.016Z,24.1
2023-08-10T16:44:46.248Z,24.1
2023-08-10T16:46:00.480Z,24.2
2023-08-10T16:47:14.784Z,24.2
2023-08-10T16:48:29.024Z,24.2
2023-08-10T16:49:43.241Z,24.2
2023-08-10T16:50:57.477Z,24.2